createdAt,value
2019-03-11T00:01:55.114Z,36.70
2019-03-11T00:04:22.894Z,36.80
2019-03-11T00:06:50.207Z,36.70
2019-03-11T00:09:17.037Z,36.70
2019-03-11T00:11:43.819Z,36.70
2019-03-11T00:14:10.617Z,36.70
2019-03-11T00:16:37.641Z,36.70
2019-03-11T00:19:04.507Z,36.70
2019-03-11T00:21:31.234Z,36.60
2019-03-11T00:23:58.339Z,36.60
2019-03-11T00:26:25.494Z,36.60
2019-03-11T00:28:52.310Z,37.20
2019-03-11T00:31:19.103Z,36.60
2019-03-11T00:33:45.964Z,36.60
2019-03-11T00:36:12.706Z,36.60
2019-03-11T00:38:39.913Z,36.50
2019-03-11T00:41:07.174Z,36.50
2019-03-11T00:43:34.033Z,36.50
2019-03-11T00:46:00.800Z,36.50
2019-03-11T00:48:27.619Z,36.50
2019-03-11T00:50:54.529Z,36.50
2019-03-11T00:53:21.597Z,36.50
2019-03-11T00:55:48.418Z,36.50
2019-03-11T00:58:17.320Z,36.40
2019-03-11T01:00:44.518Z,36.40
2019-03-11T01:03:11.294Z,36.30
2019-03-11T01:05:38.277Z,36.30
2019-03-11T01:08:05.426Z,36.30
2019-03-11T01:10:32.229Z,36.30
2019-03-11T01:12:58.995Z,36.30
2019-03-11T01:15:25.746Z,36.30
2019-03-11T01:17:52.507Z,36.40
2019-03-11T01:20:19.324Z,36.30
2019-03-11T01:22:46.092Z,36.20
2019-03-11T01:25:12.945Z,36.20
2019-03-11T01:27:39.774Z,36.20
2019-03-11T01:30:15.140Z,36.20
2019-03-11T01:32:41.899Z,36.20
2019-03-11T01:35:09.224Z,35.70
2019-03-11T01:37:35.939Z,36.20
2019-03-11T01:40:14.524Z,36.20
2019-03-11T01:42:42.058Z,36.20
2019-03-11T01:45:12.581Z,36.10
2019-03-11T01:47:39.349Z,36.10
2019-03-11T01:50:08.302Z,36.10
2019-03-11T01:52:35.062Z,36.00
2019-03-11T01:55:03.328Z,36.00
2019-03-11T01:57:30.289Z,36.00
2019-03-11T01:59:57.472Z,36.00
2019-03-11T02:02:24.483Z,35.90
2019-03-11T02:04:51.623Z,35.90
2019-03-11T02:07:18.619Z,35.90
2019-03-11T02:09:46.236Z,35.90
2019-03-11T02:12:13.310Z,36.00
2019-03-11T02:14:40.663Z,35.80
2019-03-11T02:17:07.576Z,36.50
2019-03-11T02:19:34.294Z,35.70
2019-03-11T02:22:01.563Z,35.50
2019-03-11T02:24:28.295Z,35.80
2019-03-11T02:26:55.280Z,35.80
2019-03-11T02:29:22.101Z,35.90
2019-03-11T02:31:48.853Z,35.80
2019-03-11T02:34:16.092Z,35.60
2019-03-11T02:36:43.321Z,35.50
2019-03-11T02:39:10.071Z,35.40
2019-03-11T02:41:38.648Z,35.20
2019-03-11T02:44:05.736Z,35.20
2019-03-11T02:46:32.882Z,35.10
2019-03-11T02:48:59.669Z,34.90
2019-03-11T02:51:26.552Z,34.90
2019-03-11T02:53:53.585Z,34.80
2019-03-11T02:56:21.048Z,34.70
2019-03-11T02:58:48.234Z,34.70
2019-03-11T03:01:20.786Z,34.60
2019-03-11T03:03:49.550Z,34.60
2019-03-11T03:06:17.037Z,34.50
2019-03-11T03:08:44.459Z,34.50
2019-03-11T03:11:11.796Z,34.40
2019-03-11T03:13:38.647Z,34.40
2019-03-11T03:16:05.397Z,34.30
2019-03-11T03:18:32.176Z,34.30
2019-03-11T03:20:59.339Z,34.20
2019-03-11T03:23:26.949Z,34.30
2019-03-11T03:25:54.023Z,34.30
2019-03-11T03:28:20.776Z,34.30
2019-03-11T03:30:47.633Z,34.30
2019-03-11T03:33:14.581Z,34.40
2019-03-11T03:35:41.406Z,34.50
2019-03-11T03:38:08.638Z,34.50
2019-03-11T03:40:35.389Z,34.50
2019-03-11T03:43:02.731Z,35.10
2019-03-11T03:45:37.147Z,34.40
2019-03-11T03:48:04.418Z,34.40
2019-03-11T03:50:37.526Z,34.40
2019-03-11T03:53:04.808Z,34.30
2019-03-11T03:55:31.659Z,34.30
2019-03-11T03:57:58.462Z,34.30
2019-03-11T04:00:25.283Z,34.30
2019-03-11T04:02:52.019Z,34.20
2019-03-11T04:05:18.747Z,34.30
2019-03-11T04:07:45.515Z,34.30
2019-03-11T04:10:16.585Z,34.20
2019-03-11T04:12:43.464Z,34.20
2019-03-11T04:15:10.505Z,34.10
2019-03-11T04:17:37.404Z,34.10
2019-03-11T04:20:12.583Z,34.10
2019-03-11T04:22:39.345Z,34.10
2019-03-11T04:25:08.422Z,34.00
2019-03-11T04:27:35.273Z,34.10
2019-03-11T04:30:09.120Z,34.00
2019-03-11T04:32:36.379Z,34.00
2019-03-11T04:35:04.715Z,34.00
2019-03-11T04:37:31.443Z,33.90
2019-03-11T04:39:58.193Z,34.50
2019-03-11T04:42:25.260Z,33.80
2019-03-11T04:44:52.267Z,33.90
2019-03-11T04:47:18.993Z,33.90
2019-03-11T04:49:46.037Z,33.80
2019-03-11T04:52:12.776Z,33.80
2019-03-11T04:54:39.540Z,33.70
2019-03-11T04:57:06.320Z,33.70
2019-03-11T04:59:33.063Z,33.70
2019-03-11T05:01:59.790Z,33.70
2019-03-11T05:04:26.557Z,33.70
2019-03-11T05:06:53.286Z,33.60
2019-03-11T05:09:20.033Z,33.60
2019-03-11T05:11:46.795Z,33.70
2019-03-11T05:14:13.581Z,33.60
2019-03-11T05:16:40.335Z,33.60
2019-03-11T05:19:07.450Z,33.60
2019-03-11T05:21:34.229Z,33.60
2019-03-11T05:24:02.669Z,33.50
2019-03-11T05:26:29.407Z,33.50
2019-03-11T05:28:56.483Z,33.40
2019-03-11T05:31:23.393Z,33.40
2019-03-11T05:33:50.748Z,33.40
2019-03-11T05:36:17.474Z,33.40
2019-03-11T05:38:44.240Z,33.30
2019-03-11T05:41:10.974Z,33.40
2019-03-11T05:43:37.875Z,33.40
2019-03-11T05:46:04.643Z,33.30
2019-03-11T05:48:31.399Z,33.30
2019-03-11T05:50:58.136Z,33.30
2019-03-11T05:53:25.477Z,33.30
2019-03-11T05:55:52.290Z,33.80
2019-03-11T05:58:19.046Z,33.20
2019-03-11T06:00:46.218Z,33.20
2019-03-11T06:03:12.960Z,33.20
2019-03-11T06:05:40.009Z,33.20
2019-03-11T06:08:10.537Z,33.10
2019-03-11T06:10:37.364Z,33.00
2019-03-11T06:13:04.193Z,33.00
2019-03-11T06:15:30.989Z,33.00
2019-03-11T06:17:57.718Z,33.00
2019-03-11T06:20:41.418Z,32.90
2019-03-11T06:23:10.433Z,32.90
2019-03-11T06:25:37.584Z,32.90
2019-03-11T06:28:04.704Z,32.90
2019-03-11T06:30:32.284Z,32.80
2019-03-11T06:32:59.005Z,32.80
2019-03-11T06:35:25.741Z,32.80
2019-03-11T06:37:52.619Z,32.80
2019-03-11T06:40:19.393Z,32.80
2019-03-11T06:42:46.117Z,32.80
2019-03-11T06:45:13.962Z,32.70
2019-03-11T06:47:41.216Z,32.70
2019-03-11T06:50:10.440Z,32.70
2019-03-11T06:52:37.193Z,32.60
2019-03-11T06:55:06.542Z,32.60
2019-03-11T06:57:33.298Z,32.60
2019-03-11T07:00:00.048Z,32.60
2019-03-11T07:02:26.786Z,32.60
2019-03-11T07:04:53.521Z,32.60
2019-03-11T07:07:20.574Z,32.70
2019-03-11T07:09:47.365Z,32.60
2019-03-11T07:12:14.213Z,32.60
2019-03-11T07:14:41.108Z,32.50
2019-03-11T07:17:07.836Z,32.50
2019-03-11T07:19:34.791Z,32.50
2019-03-11T07:22:01.520Z,32.50
2019-03-11T07:24:28.387Z,32.40
2019-03-11T07:26:55.125Z,32.50
2019-03-11T07:29:21.869Z,32.40
2019-03-11T07:31:48.730Z,32.40
2019-03-11T07:34:15.843Z,32.30
2019-03-11T07:36:42.598Z,32.30
2019-03-11T07:39:09.750Z,32.30
2019-03-11T07:41:36.474Z,32.40
2019-03-11T07:44:03.532Z,32.30
2019-03-11T07:46:30.365Z,32.30
2019-03-11T07:48:57.086Z,32.30
2019-03-11T07:51:23.931Z,32.20
2019-03-11T07:53:50.998Z,32.20
2019-03-11T07:56:17.903Z,32.20
2019-03-11T07:58:44.967Z,32.80
2019-03-11T08:01:12.019Z,32.20
2019-03-11T08:03:38.756Z,32.10
2019-03-11T08:06:05.540Z,32.10
2019-03-11T08:08:32.672Z,32.00
2019-03-11T08:10:59.539Z,31.90
2019-03-11T08:13:26.337Z,31.80
2019-03-11T08:15:53.114Z,31.60
2019-03-11T08:18:21.116Z,31.50
2019-03-11T08:20:47.936Z,31.50
2019-03-11T08:23:14.777Z,31.40
2019-03-11T08:25:44.521Z,31.40
2019-03-11T08:28:11.844Z,31.40
2019-03-11T08:30:38.602Z,31.30
2019-03-11T08:33:05.375Z,31.30
2019-03-11T08:35:32.105Z,31.40
2019-03-11T08:38:04.570Z,31.40
2019-03-11T08:40:27.889Z,31.40
2019-03-11T08:42:55.097Z,31.30
2019-03-11T08:45:21.977Z,31.40
2019-03-11T08:47:48.702Z,31.40
2019-03-11T08:50:15.668Z,31.30
2019-03-11T08:52:42.613Z,31.40
2019-03-11T08:55:09.393Z,31.30
2019-03-11T08:57:36.133Z,31.40
2019-03-11T09:00:18.338Z,31.30
2019-03-11T09:02:45.135Z,31.30
2019-03-11T09:05:12.287Z,31.30
2019-03-11T09:07:39.036Z,31.30
2019-03-11T09:10:10.407Z,31.30
2019-03-11T09:12:37.865Z,31.30
2019-03-11T09:15:19.790Z,31.30
2019-03-11T09:17:46.718Z,31.30
2019-03-11T09:20:15.329Z,31.30
2019-03-11T09:22:42.788Z,31.20
2019-03-11T09:25:20.423Z,31.20
2019-03-11T09:27:47.335Z,31.20
2019-03-11T09:30:20.108Z,31.20
2019-03-11T09:32:46.914Z,31.20
2019-03-11T09:35:13.910Z,31.20
2019-03-11T09:37:41.024Z,31.20
2019-03-11T09:40:16.459Z,31.20
2019-03-11T09:42:43.355Z,31.10
2019-03-11T09:45:16.079Z,31.00
2019-03-11T09:47:42.861Z,31.10
2019-03-11T09:50:15.572Z,31.10
2019-03-11T09:52:42.347Z,31.30
2019-03-11T09:55:12.786Z,31.40
2019-03-11T09:57:39.631Z,31.40
2019-03-11T10:00:20.773Z,31.40
2019-03-11T10:02:52.146Z,31.40
2019-03-11T10:05:16.322Z,31.40
2019-03-11T10:07:43.807Z,31.40
2019-03-11T10:10:17.857Z,31.50
2019-03-11T10:12:44.972Z,31.50
2019-03-11T10:15:18.222Z,31.50
2019-03-11T10:20:30.566Z,31.50
2019-03-11T10:22:57.714Z,31.50
2019-03-11T10:25:24.884Z,31.60
2019-03-11T10:27:52.060Z,31.50
2019-03-11T10:30:23.701Z,31.60
2019-03-11T10:32:50.458Z,31.60
2019-03-11T10:35:31.506Z,31.60
2019-03-11T10:37:48.043Z,31.70
2019-03-11T10:40:22.086Z,31.70
2019-03-11T10:42:50.356Z,31.70
2019-03-11T10:45:17.346Z,31.60
2019-03-11T10:47:44.414Z,31.80
2019-03-11T10:50:19.358Z,31.40
2019-03-11T10:52:50.347Z,31.40
2019-03-11T10:55:22.252Z,31.60
2019-03-11T10:57:49.183Z,31.50
2019-03-11T11:00:26.967Z,31.60
2019-03-11T11:02:53.725Z,31.70
2019-03-11T11:05:20.455Z,31.70
2019-03-11T11:07:47.264Z,31.60
2019-03-11T11:10:15.811Z,31.80
2019-03-11T11:12:42.706Z,31.80
2019-03-11T11:15:23.825Z,32.40
2019-03-11T11:17:50.683Z,31.60
2019-03-11T11:20:20.327Z,31.70
2019-03-11T11:22:47.777Z,31.70
2019-03-11T11:25:19.671Z,31.60
2019-03-11T11:27:46.446Z,31.70
2019-03-11T11:30:24.855Z,31.80
2019-03-11T11:32:52.040Z,32.00
2019-03-11T11:35:19.348Z,32.20
2019-03-11T11:37:46.146Z,32.20
2019-03-11T11:40:21.889Z,32.20
2019-03-11T11:42:48.905Z,32.20
2019-03-11T11:45:18.243Z,32.10
2019-03-11T11:47:47.538Z,32.00
2019-03-11T11:50:23.064Z,31.90
2019-03-11T11:52:50.154Z,31.90
2019-03-11T11:55:19.189Z,31.50
2019-03-11T11:57:46.019Z,31.50
2019-03-11T12:00:22.352Z,31.50
2019-03-11T12:02:49.502Z,31.70
2019-03-11T12:05:17.581Z,31.50
2019-03-11T12:07:48.905Z,31.50
2019-03-11T12:10:24.670Z,31.50
2019-03-11T12:12:51.483Z,31.50
2019-03-11T12:15:18.511Z,31.60
2019-03-11T12:17:46.079Z,31.60
2019-03-11T12:20:19.216Z,31.70
2019-03-11T12:22:50.714Z,31.60
2019-03-11T12:25:17.468Z,31.60
2019-03-11T12:27:53.156Z,31.50
2019-03-11T12:30:28.806Z,31.40
2019-03-11T12:32:55.964Z,31.40
2019-03-11T12:35:23.104Z,31.50
2019-03-11T12:37:58.296Z,31.30
2019-03-11T12:40:25.512Z,31.50
2019-03-11T12:42:53.853Z,31.60
2019-03-11T12:45:25.001Z,31.40
2019-03-11T12:47:55.015Z,31.40
2019-03-11T12:50:26.639Z,31.40
2019-03-11T12:52:54.860Z,31.40
2019-03-11T12:55:22.091Z,31.30
2019-03-11T12:57:50.687Z,31.30
2019-03-11T13:00:20.517Z,31.30
2019-03-11T13:02:47.643Z,31.10
2019-03-11T13:05:15.149Z,31.40
2019-03-11T13:07:42.245Z,31.30
2019-03-11T13:10:22.823Z,31.30
2019-03-11T13:12:49.586Z,31.30
2019-03-11T13:15:16.334Z,31.40
2019-03-11T13:17:43.545Z,31.30
2019-03-11T13:20:30.331Z,31.30
2019-03-11T13:22:58.424Z,31.60
2019-03-11T13:25:26.212Z,31.10
2019-03-11T13:27:53.122Z,30.90
2019-03-11T13:30:20.014Z,31.10
2019-03-11T13:32:47.549Z,31.10
2019-03-11T13:35:14.453Z,31.10
2019-03-11T13:37:41.199Z,31.00
2019-03-11T13:40:14.054Z,30.90
2019-03-11T13:42:40.765Z,30.90
2019-03-11T13:45:15.330Z,31.00
2019-03-11T13:47:42.953Z,31.00
2019-03-11T13:50:16.903Z,31.00
2019-03-11T13:52:44.105Z,30.90
2019-03-11T13:55:13.446Z,30.80
2019-03-11T13:57:40.376Z,30.90
2019-03-11T14:00:18.568Z,31.00
2019-03-11T14:02:45.620Z,30.90
2019-03-11T14:05:13.158Z,30.90
2019-03-11T14:07:40.102Z,31.00
2019-03-11T14:10:10.346Z,31.00
2019-03-11T14:12:37.207Z,31.00
2019-03-11T14:15:20.827Z,31.00
2019-03-11T14:18:08.278Z,30.90
2019-03-11T14:20:35.477Z,30.90
2019-03-11T14:23:03.098Z,30.80
2019-03-11T14:25:31.962Z,30.80
2019-03-11T14:27:59.074Z,30.70
2019-03-11T14:30:25.846Z,30.60
2019-03-11T14:32:54.232Z,30.60
2019-03-11T14:35:21.149Z,30.50
2019-03-11T14:37:51.293Z,30.70
2019-03-11T14:40:19.683Z,30.80
2019-03-11T14:42:46.417Z,30.90
2019-03-11T14:45:18.487Z,30.90
2019-03-11T14:47:45.534Z,30.90
2019-03-11T14:50:12.899Z,31.00
2019-03-11T14:52:39.652Z,30.90
2019-03-11T14:55:08.838Z,30.70
2019-03-11T14:57:35.566Z,30.60
2019-03-11T15:00:06.094Z,30.70
2019-03-11T15:02:33.863Z,30.70
2019-03-11T15:05:00.837Z,30.80
2019-03-11T15:07:27.849Z,30.80
2019-03-11T15:09:54.709Z,30.80
2019-03-11T15:12:21.811Z,31.00
2019-03-11T15:14:48.671Z,30.80
2019-03-11T15:17:15.438Z,30.70
2019-03-11T15:19:42.187Z,30.80
2019-03-11T15:22:09.575Z,30.90
2019-03-11T15:24:36.458Z,30.70
2019-03-11T15:27:03.178Z,30.70
2019-03-11T15:29:30.642Z,30.70
2019-03-11T15:31:57.956Z,30.50
2019-03-11T15:34:24.754Z,30.50
2019-03-11T15:36:51.550Z,30.70
2019-03-11T15:39:18.270Z,30.80
2019-03-11T15:41:45.304Z,30.70
2019-03-11T15:44:12.450Z,30.50
2019-03-11T15:46:39.725Z,30.80
2019-03-11T15:49:06.958Z,30.80
2019-03-11T15:51:36.735Z,31.30
2019-03-11T15:54:02.870Z,30.90
2019-03-11T15:56:30.902Z,30.80
2019-03-11T15:58:59.421Z,30.90
2019-03-11T16:01:26.449Z,30.80
2019-03-11T16:03:53.548Z,30.80
2019-03-11T16:06:20.666Z,30.70
2019-03-11T16:08:53.649Z,30.80
2019-03-11T16:11:20.414Z,30.70
2019-03-11T16:13:47.561Z,30.70
2019-03-11T16:16:14.511Z,30.70
2019-03-11T16:18:41.230Z,30.70
2019-03-11T16:21:08.276Z,30.70
2019-03-11T16:23:35.347Z,30.70
2019-03-11T16:26:02.148Z,30.70
2019-03-11T16:28:28.863Z,30.60
2019-03-11T16:30:55.950Z,30.60
2019-03-11T16:33:22.802Z,30.80
2019-03-11T16:35:49.565Z,30.80
2019-03-11T16:38:16.395Z,30.90
2019-03-11T16:40:43.841Z,30.90
2019-03-11T16:43:10.626Z,31.00
2019-03-11T16:45:37.746Z,30.90
2019-03-11T16:48:04.947Z,31.00
2019-03-11T16:50:32.055Z,30.90
2019-03-11T16:52:59.199Z,30.90
2019-03-11T16:55:45.883Z,30.90
2019-03-11T16:58:12.627Z,30.90
2019-03-11T17:00:44.090Z,30.90
2019-03-11T17:03:10.814Z,30.90
2019-03-11T17:05:39.160Z,30.90
2019-03-11T17:08:07.782Z,30.80
2019-03-11T17:10:36.263Z,30.70
2019-03-11T17:13:03.563Z,30.70
2019-03-11T17:15:30.290Z,30.90
2019-03-11T17:17:57.045Z,30.80
2019-03-11T17:20:24.142Z,30.80
2019-03-11T17:22:51.317Z,30.80
2019-03-11T17:25:18.469Z,30.70
2019-03-11T17:27:45.391Z,30.70
2019-03-11T17:30:25.350Z,30.70
2019-03-11T17:32:52.487Z,30.50
2019-03-11T17:35:19.259Z,30.70
2019-03-11T17:37:46.410Z,30.80
2019-03-11T17:40:18.858Z,30.80
2019-03-11T17:42:46.699Z,30.70
2019-03-11T17:45:14.548Z,31.30
2019-03-11T17:47:41.318Z,30.80
2019-03-11T17:50:19.154Z,30.80
2019-03-11T17:52:46.640Z,30.80
2019-03-11T17:55:14.994Z,30.80
2019-03-11T17:57:41.869Z,30.70
2019-03-11T18:00:21.703Z,30.80
2019-03-11T18:02:48.939Z,30.70
2019-03-11T18:05:15.820Z,30.70
2019-03-11T18:07:42.685Z,30.80
2019-03-11T18:10:09.509Z,30.80
2019-03-11T18:12:36.259Z,30.80
2019-03-11T18:15:06.053Z,30.70
2019-03-11T18:17:33.164Z,30.70
2019-03-11T18:20:00.075Z,30.70
2019-03-11T18:22:27.044Z,30.80
2019-03-11T18:24:54.180Z,30.70
2019-03-11T18:27:21.055Z,30.70
2019-03-11T18:29:48.033Z,30.70
2019-03-11T18:32:14.790Z,30.70
2019-03-11T18:34:41.641Z,30.80
2019-03-11T18:37:08.375Z,30.80
2019-03-11T18:39:37.161Z,30.80
2019-03-11T18:42:03.926Z,30.90
2019-03-11T18:44:30.693Z,30.90
2019-03-11T18:46:57.427Z,31.00
2019-03-11T18:49:24.563Z,30.90
2019-03-11T18:51:51.319Z,30.70
2019-03-11T18:54:18.366Z,30.70
2019-03-11T18:56:45.521Z,30.90
2019-03-11T18:59:12.770Z,30.90
2019-03-11T19:01:40.087Z,31.60
2019-03-11T19:04:06.884Z,30.90
2019-03-11T19:06:33.700Z,31.00
2019-03-11T19:09:00.479Z,30.90
2019-03-11T19:11:27.318Z,30.70
2019-03-11T19:13:54.084Z,30.60
2019-03-11T19:16:21.025Z,30.60
2019-03-11T19:18:48.473Z,30.60
2019-03-11T19:21:15.222Z,30.50
2019-03-11T19:23:44.427Z,30.50
2019-03-11T19:26:11.317Z,30.50
2019-03-11T19:28:38.247Z,31.20
2019-03-11T19:31:05.172Z,30.60
2019-03-11T19:33:32.363Z,30.60
2019-03-11T19:35:59.622Z,30.60
2019-03-11T19:38:26.679Z,30.60
2019-03-11T19:40:53.439Z,30.60
2019-03-11T19:43:20.351Z,30.50
2019-03-11T19:45:47.094Z,30.60
2019-03-11T19:48:14.295Z,30.60
2019-03-11T19:50:41.051Z,30.60
2019-03-11T19:53:08.267Z,30.70
2019-03-11T19:55:35.235Z,30.60
2019-03-11T19:58:01.971Z,30.60
2019-03-11T20:00:29.177Z,30.60
2019-03-11T20:02:56.012Z,30.60
2019-03-11T20:05:31.110Z,30.60
2019-03-11T20:07:58.668Z,30.70
2019-03-11T20:10:25.527Z,30.60
2019-03-11T20:12:52.399Z,30.60
2019-03-11T20:15:19.142Z,30.80
2019-03-11T20:17:46.346Z,30.70
2019-03-11T20:20:18.392Z,30.70
2019-03-11T20:22:47.192Z,30.70
2019-03-11T20:25:31.235Z,30.70
2019-03-11T20:27:58.075Z,30.70
2019-03-11T20:30:24.976Z,30.80
2019-03-11T20:32:51.938Z,30.70
2019-03-11T20:35:18.999Z,31.30
2019-03-11T20:37:46.080Z,30.70
2019-03-11T20:40:13.001Z,30.70
2019-03-11T20:42:39.912Z,31.10
2019-03-11T20:45:11.750Z,31.40
2019-03-11T20:47:38.726Z,30.80
2019-03-11T20:50:09.407Z,30.80
2019-03-11T20:52:37.724Z,30.80
2019-03-11T20:55:08.597Z,30.70
2019-03-11T20:57:35.765Z,30.80
2019-03-11T21:00:07.496Z,30.80
2019-03-11T21:02:34.594Z,30.80
2019-03-11T21:05:01.513Z,30.80
2019-03-11T21:07:28.707Z,30.80
2019-03-11T21:09:56.227Z,30.80
2019-03-11T21:12:23.284Z,30.90
2019-03-11T21:14:50.214Z,30.90
2019-03-11T21:17:25.983Z,30.80
2019-03-11T21:19:45.607Z,30.90
2019-03-11T21:22:12.851Z,30.90
2019-03-11T21:24:39.983Z,30.80
2019-03-11T21:27:08.129Z,30.90
2019-03-11T21:29:38.429Z,30.90
2019-03-11T21:32:03.612Z,30.80
2019-03-11T21:34:30.503Z,30.80
2019-03-11T21:36:57.537Z,31.50
2019-03-11T21:39:24.855Z,30.90
2019-03-11T21:41:51.643Z,30.90
2019-03-11T21:44:18.363Z,30.90
2019-03-11T21:46:45.315Z,30.90
2019-03-11T21:49:12.552Z,31.00
2019-03-11T21:51:41.342Z,30.90
2019-03-11T21:54:08.320Z,31.60
2019-03-11T21:56:35.395Z,31.00
2019-03-11T21:59:02.228Z,31.00
2019-03-11T22:01:29.748Z,31.00
2019-03-11T22:03:56.477Z,31.00
2019-03-11T22:06:23.520Z,31.00
2019-03-11T22:08:50.855Z,31.00
2019-03-11T22:11:17.847Z,31.00
2019-03-11T22:13:44.585Z,31.00
2019-03-11T22:16:12.845Z,31.10
2019-03-11T22:18:39.569Z,31.00
2019-03-11T22:21:06.305Z,31.10
2019-03-11T22:23:33.223Z,31.10
2019-03-11T22:26:00.214Z,31.00
2019-03-11T22:28:27.186Z,31.10
2019-03-11T22:30:53.999Z,31.70
2019-03-11T22:33:20.757Z,31.10
2019-03-11T22:35:47.492Z,31.10
2019-03-11T22:38:14.541Z,31.10
2019-03-11T22:40:41.284Z,31.10
2019-03-11T22:43:08.389Z,31.10
2019-03-11T22:45:35.487Z,31.00
2019-03-11T22:48:02.530Z,31.00
2019-03-11T22:50:29.712Z,31.10
2019-03-11T22:52:56.806Z,31.10
2019-03-11T22:55:23.628Z,31.10
2019-03-11T22:57:50.720Z,31.10
2019-03-11T23:00:45.580Z,31.10
2019-03-11T23:03:12.670Z,31.10
2019-03-11T23:05:39.417Z,31.00
2019-03-11T23:08:06.143Z,30.50
2019-03-11T23:10:32.904Z,31.10
2019-03-11T23:12:59.627Z,31.10
2019-03-11T23:15:26.392Z,31.20
2019-03-11T23:17:53.127Z,31.20
2019-03-11T23:20:20.251Z,31.20
2019-03-11T23:22:46.966Z,31.10
2019-03-11T23:25:15.062Z,31.10
2019-03-11T23:27:41.859Z,31.10
2019-03-11T23:30:12.227Z,31.20
2019-03-11T23:32:38.938Z,31.10
2019-03-11T23:35:06.368Z,31.10
2019-03-11T23:37:33.125Z,31.10
2019-03-11T23:39:59.864Z,31.10
2019-03-11T23:42:26.571Z,31.10
2019-03-11T23:44:53.306Z,31.10
2019-03-11T23:47:20.413Z,31.10
2019-03-11T23:49:47.154Z,31.10
2019-03-11T23:52:13.881Z,31.10
2019-03-11T23:54:40.612Z,31.10
2019-03-11T23:57:07.683Z,31.20
2019-03-11T23:59:34.398Z,31.10
